sensor_id;sensor_type;location;lat;lon;timestamp;P1;durP1;ratioP1;P2;durP2;ratioP2
11893;SDS011;6006;49.696;8.662;2023-05-01T00:01:51;1.77;;;1.67;;
11893;SDS011;6006;49.696;8.662;2023-05-01T00:04:18;3.03;;;1.30;;
11893;SDS011;6006;49.696;8.662;2023-05-01T00:06:45;1.60;;;1.50;;
11893;SDS011;6006;49.696;8.662;2023-05-01T00:09:14;1.73;;;1.63;;
11893;SDS011;6006;49.696;8.662;2023-05-01T00:11:40;1.60;;;1.50;;
11893;SDS011;6006;49.696;8.662;2023-05-01T00:14:07;2.40;;;1.27;;
11893;SDS011;6006;49.696;8.662;2023-05-01T00:16:34;1.53;;;1.40;;
11893;SDS011;6006;49.696;8.662;2023-05-01T00:19:01;2.90;;;1.50;;
11893;SDS011;6006;49.696;8.662;2023-05-01T00:21:29;1.70;;;1.60;;
11893;SDS011;6006;49.696;8.662;2023-05-01T00:23:56;1.73;;;1.50;;
11893;SDS011;6006;49.696;8.662;2023-05-01T00:26:24;1.60;;;1.50;;
11893;SDS011;6006;49.696;8.662;2023-05-01T00:28:54;3.13;;;1.90;;
11893;SDS011;6006;49.696;8.662;2023-05-01T00:31:22;2.27;;;1.70;;
11893;SDS011;6006;49.696;8.662;2023-05-01T00:33:50;2.47;;;1.50;;
11893;SDS011;6006;49.696;8.662;2023-05-01T00:36:17;1.53;;;1.40;;
11893;SDS011;6006;49.696;8.662;2023-05-01T00:38:44;1.53;;;1.43;;
11893;SDS011;6006;49.696;8.662;2023-05-01T00:41:11;2.23;;;1.70;;
11893;SDS011;6006;49.696;8.662;2023-05-01T00:43:39;3.50;;;1.30;;
11893;SDS011;6006;49.696;8.662;2023-05-01T00:46:06;1.87;;;1.77;;
11893;SDS011;6006;49.696;8.662;2023-05-01T00:48:33;1.93;;;1.53;;
11893;SDS011;6006;49.696;8.662;2023-05-01T00:51:02;2.00;;;1.80;;
11893;SDS011;6006;49.696;8.662;2023-05-01T00:53:32;1.70;;;1.30;;
11893;SDS011;6006;49.696;8.662;2023-05-01T00:55:59;1.60;;;1.47;;
11893;SDS011;6006;49.696;8.662;2023-05-01T00:58:26;1.97;;;1.50;;
11893;SDS011;6006;49.696;8.662;2023-05-01T01:00:56;1.57;;;1.47;;
11893;SDS011;6006;49.696;8.662;2023-05-01T01:03:23;1.77;;;1.67;;
11893;SDS011;6006;49.696;8.662;2023-05-01T01:05:50;1.83;;;1.60;;
11893;SDS011;6006;49.696;8.662;2023-05-01T01:08:22;1.40;;;1.30;;
11893;SDS011;6006;49.696;8.662;2023-05-01T01:10:55;1.60;;;1.40;;
11893;SDS011;6006;49.696;8.662;2023-05-01T01:13:27;1.60;;;1.50;;
11893;SDS011;6006;49.696;8.662;2023-05-01T01:16:01;1.60;;;1.50;;
11893;SDS011;6006;49.696;8.662;2023-05-01T01:18:35;1.97;;;1.53;;
11893;SDS011;6006;49.696;8.662;2023-05-01T01:21:07;1.57;;;1.47;;
11893;SDS011;6006;49.696;8.662;2023-05-01T01:23:43;3.00;;;1.60;;
11893;SDS011;6006;49.696;8.662;2023-05-01T01:29:37;1.70;;;1.60;;
11893;SDS011;6006;49.696;8.662;2023-05-01T01:32:31;1.70;;;1.60;;
11893;SDS011;6006;49.696;8.662;2023-05-01T01:35:15;1.53;;;1.43;;
11893;SDS011;6006;49.696;8.662;2023-05-01T01:37:47;1.60;;;1.43;;
11893;SDS011;6006;49.696;8.662;2023-05-01T01:40:17;2.10;;;1.67;;
11893;SDS011;6006;49.696;8.662;2023-05-01T01:42:48;1.77;;;1.67;;
11893;SDS011;6006;49.696;8.662;2023-05-01T01:45:20;1.70;;;1.60;;
11893;SDS011;6006;49.696;8.662;2023-05-01T01:47:48;1.57;;;1.47;;
11893;SDS011;6006;49.696;8.662;2023-05-01T01:50:19;1.60;;;1.50;;
11893;SDS011;6006;49.696;8.662;2023-05-01T01:52:49;2.33;;;1.80;;
11893;SDS011;6006;49.696;8.662;2023-05-01T01:55:19;1.80;;;1.60;;
11893;SDS011;6006;49.696;8.662;2023-05-01T01:57:48;2.00;;;1.50;;
11893;SDS011;6006;49.696;8.662;2023-05-01T02:00:16;1.90;;;1.60;;
11893;SDS011;6006;49.696;8.662;2023-05-01T02:02:45;2.50;;;1.50;;
11893;SDS011;6006;49.696;8.662;2023-05-01T02:05:14;1.63;;;1.50;;
11893;SDS011;6006;49.696;8.662;2023-05-01T02:07:45;1.83;;;1.73;;
11893;SDS011;6006;49.696;8.662;2023-05-01T02:10:14;2.13;;;1.70;;
11893;SDS011;6006;49.696;8.662;2023-05-01T02:12:43;1.67;;;1.50;;
11893;SDS011;6006;49.696;8.662;2023-05-01T02:15:13;1.80;;;1.70;;
11893;SDS011;6006;49.696;8.662;2023-05-01T02:17:41;1.70;;;1.60;;
11893;SDS011;6006;49.696;8.662;2023-05-01T02:20:09;1.40;;;1.30;;
11893;SDS011;6006;49.696;8.662;2023-05-01T02:22:37;1.80;;;1.70;;
11893;SDS011;6006;49.696;8.662;2023-05-01T02:25:07;3.23;;;1.73;;
11893;SDS011;6006;49.696;8.662;2023-05-01T02:27:37;1.70;;;1.60;;
11893;SDS011;6006;49.696;8.662;2023-05-01T02:30:05;1.97;;;1.67;;
11893;SDS011;6006;49.696;8.662;2023-05-01T02:32:33;1.50;;;1.40;;
11893;SDS011;6006;49.696;8.662;2023-05-01T02:35:00;2.30;;;1.67;;
11893;SDS011;6006;49.696;8.662;2023-05-01T02:37:27;2.03;;;1.70;;
11893;SDS011;6006;49.696;8.662;2023-05-01T02:39:55;1.87;;;1.77;;
11893;SDS011;6006;49.696;8.662;2023-05-01T02:42:23;1.90;;;1.70;;
11893;SDS011;6006;49.696;8.662;2023-05-01T02:44:55;2.43;;;1.60;;
11893;SDS011;6006;49.696;8.662;2023-05-01T02:47:26;3.40;;;1.70;;
11893;SDS011;6006;49.696;8.662;2023-05-01T02:49:55;1.80;;;1.70;;
11893;SDS011;6006;49.696;8.662;2023-05-01T02:52:24;2.13;;;1.93;;
11893;SDS011;6006;49.696;8.662;2023-05-01T02:54:51;2.03;;;1.60;;
11893;SDS011;6006;49.696;8.662;2023-05-01T02:57:18;2.20;;;1.93;;
11893;SDS011;6006;49.696;8.662;2023-05-01T02:59:47;2.33;;;1.50;;
11893;SDS011;6006;49.696;8.662;2023-05-01T03:02:14;1.63;;;1.53;;
11893;SDS011;6006;49.696;8.662;2023-05-01T03:04:40;1.97;;;1.70;;
11893;SDS011;6006;49.696;8.662;2023-05-01T03:07:08;2.43;;;1.90;;
11893;SDS011;6006;49.696;8.662;2023-05-01T03:09:35;1.43;;;1.33;;
11893;SDS011;6006;49.696;8.662;2023-05-01T03:12:02;1.90;;;1.80;;
11893;SDS011;6006;49.696;8.662;2023-05-01T03:14:29;1.97;;;1.73;;
11893;SDS011;6006;49.696;8.662;2023-05-01T03:16:57;2.40;;;1.80;;
11893;SDS011;6006;49.696;8.662;2023-05-01T03:19:24;2.43;;;2.10;;
11893;SDS011;6006;49.696;8.662;2023-05-01T03:21:51;2.00;;;1.90;;
11893;SDS011;6006;49.696;8.662;2023-05-01T03:24:18;2.33;;;1.87;;
11893;SDS011;6006;49.696;8.662;2023-05-01T03:26:45;2.13;;;1.80;;
11893;SDS011;6006;49.696;8.662;2023-05-01T03:29:11;4.30;;;1.87;;
11893;SDS011;6006;49.696;8.662;2023-05-01T03:31:38;1.77;;;1.67;;
11893;SDS011;6006;49.696;8.662;2023-05-01T03:34:06;1.93;;;1.67;;
11893;SDS011;6006;49.696;8.662;2023-05-01T03:36:33;2.30;;;1.90;;
11893;SDS011;6006;49.696;8.662;2023-05-01T03:39:01;1.93;;;1.80;;
11893;SDS011;6006;49.696;8.662;2023-05-01T03:41:28;1.80;;;1.70;;
11893;SDS011;6006;49.696;8.662;2023-05-01T03:43:55;3.30;;;2.10;;
11893;SDS011;6006;49.696;8.662;2023-05-01T03:46:22;2.70;;;1.83;;
11893;SDS011;6006;49.696;8.662;2023-05-01T03:48:49;2.30;;;2.07;;
11893;SDS011;6006;49.696;8.662;2023-05-01T03:51:17;2.00;;;1.90;;
11893;SDS011;6006;49.696;8.662;2023-05-01T03:53:44;3.23;;;1.73;;
11893;SDS011;6006;49.696;8.662;2023-05-01T03:56:11;2.43;;;2.00;;
11893;SDS011;6006;49.696;8.662;2023-05-01T03:58:38;1.80;;;1.70;;
11893;SDS011;6006;49.696;8.662;2023-05-01T04:01:05;1.70;;;1.60;;
11893;SDS011;6006;49.696;8.662;2023-05-01T04:03:31;1.60;;;1.60;;
11893;SDS011;6006;49.696;8.662;2023-05-01T04:05:58;2.43;;;2.23;;
11893;SDS011;6006;49.696;8.662;2023-05-01T04:08:27;2.10;;;1.90;;
11893;SDS011;6006;49.696;8.662;2023-05-01T04:10:53;2.33;;;2.10;;
11893;SDS011;6006;49.696;8.662;2023-05-01T04:13:20;2.33;;;2.13;;
11893;SDS011;6006;49.696;8.662;2023-05-01T04:15:47;2.80;;;2.37;;
11893;SDS011;6006;49.696;8.662;2023-05-01T04:18:14;1.80;;;1.70;;
11893;SDS011;6006;49.696;8.662;2023-05-01T04:20:41;5.07;;;2.17;;
11893;SDS011;6006;49.696;8.662;2023-05-01T04:23:08;4.43;;;2.23;;
11893;SDS011;6006;49.696;8.662;2023-05-01T04:25:36;2.40;;;2.20;;
11893;SDS011;6006;49.696;8.662;2023-05-01T04:28:03;2.50;;;2.20;;
11893;SDS011;6006;49.696;8.662;2023-05-01T04:30:30;2.10;;;2.00;;
11893;SDS011;6006;49.696;8.662;2023-05-01T04:32:57;3.27;;;2.20;;
11893;SDS011;6006;49.696;8.662;2023-05-01T04:35:23;2.03;;;1.83;;
11893;SDS011;6006;49.696;8.662;2023-05-01T04:37:50;2.13;;;2.00;;
11893;SDS011;6006;49.696;8.662;2023-05-01T04:40:17;2.47;;;2.27;;
11893;SDS011;6006;49.696;8.662;2023-05-01T04:42:46;4.30;;;2.50;;
11893;SDS011;6006;49.696;8.662;2023-05-01T04:45:12;2.53;;;2.20;;
11893;SDS011;6006;49.696;8.662;2023-05-01T04:47:40;2.50;;;2.30;;
11893;SDS011;6006;49.696;8.662;2023-05-01T04:50:07;2.70;;;2.30;;
11893;SDS011;6006;49.696;8.662;2023-05-01T04:52:34;2.77;;;2.40;;
11893;SDS011;6006;49.696;8.662;2023-05-01T04:55:01;2.30;;;2.20;;
11893;SDS011;6006;49.696;8.662;2023-05-01T04:57:28;2.47;;;2.33;;
11893;SDS011;6006;49.696;8.662;2023-05-01T04:59:57;2.27;;;2.10;;
11893;SDS011;6006;49.696;8.662;2023-05-01T05:02:23;2.30;;;2.20;;
11893;SDS011;6006;49.696;8.662;2023-05-01T05:04:50;2.63;;;2.23;;
11893;SDS011;6006;49.696;8.662;2023-05-01T05:07:18;3.10;;;2.90;;
11893;SDS011;6006;49.696;8.662;2023-05-01T05:09:45;2.30;;;2.10;;
11893;SDS011;6006;49.696;8.662;2023-05-01T05:12:12;2.40;;;2.20;;
11893;SDS011;6006;49.696;8.662;2023-05-01T05:14:39;2.80;;;2.60;;
11893;SDS011;6006;49.696;8.662;2023-05-01T05:17:08;2.87;;;2.60;;
11893;SDS011;6006;49.696;8.662;2023-05-01T05:19:35;3.50;;;2.37;;
11893;SDS011;6006;49.696;8.662;2023-05-01T05:22:02;4.20;;;2.50;;
11893;SDS011;6006;49.696;8.662;2023-05-01T05:24:29;2.60;;;2.40;;
11893;SDS011;6006;49.696;8.662;2023-05-01T05:26:56;4.57;;;2.50;;
11893;SDS011;6006;49.696;8.662;2023-05-01T05:29:23;3.57;;;2.60;;
11893;SDS011;6006;49.696;8.662;2023-05-01T05:31:50;2.83;;;2.63;;
11893;SDS011;6006;49.696;8.662;2023-05-01T05:34:18;3.27;;;2.53;;
11893;SDS011;6006;49.696;8.662;2023-05-01T05:36:45;3.03;;;2.83;;
11893;SDS011;6006;49.696;8.662;2023-05-01T05:39:12;3.20;;;2.43;;
11893;SDS011;6006;49.696;8.662;2023-05-01T05:41:38;3.80;;;2.50;;
11893;SDS011;6006;49.696;8.662;2023-05-01T05:44:05;2.77;;;2.43;;
11893;SDS011;6006;49.696;8.662;2023-05-01T05:46:32;2.47;;;2.27;;
11893;SDS011;6006;49.696;8.662;2023-05-01T05:48:59;2.30;;;2.10;;
11893;SDS011;6006;49.696;8.662;2023-05-01T05:51:27;3.00;;;2.20;;
11893;SDS011;6006;49.696;8.662;2023-05-01T05:53:54;2.33;;;2.13;;
11893;SDS011;6006;49.696;8.662;2023-05-01T05:56:21;3.37;;;2.60;;
11893;SDS011;6006;49.696;8.662;2023-05-01T05:58:48;2.93;;;2.73;;
11893;SDS011;6006;49.696;8.662;2023-05-01T06:01:15;2.50;;;2.30;;
11893;SDS011;6006;49.696;8.662;2023-05-01T06:03:42;2.90;;;2.23;;
11893;SDS011;6006;49.696;8.662;2023-05-01T06:06:09;2.43;;;2.23;;
11893;SDS011;6006;49.696;8.662;2023-05-01T06:08:37;2.30;;;2.10;;
11893;SDS011;6006;49.696;8.662;2023-05-01T06:11:04;2.67;;;2.20;;
11893;SDS011;6006;49.696;8.662;2023-05-01T06:13:31;2.10;;;2.00;;
11893;SDS011;6006;49.696;8.662;2023-05-01T06:15:58;2.47;;;2.27;;
11893;SDS011;6006;49.696;8.662;2023-05-01T06:18:25;2.97;;;2.10;;
11893;SDS011;6006;49.696;8.662;2023-05-01T06:20:54;2.37;;;2.23;;
11893;SDS011;6006;49.696;8.662;2023-05-01T06:23:21;2.50;;;2.30;;
11893;SDS011;6006;49.696;8.662;2023-05-01T06:25:49;2.40;;;2.20;;
11893;SDS011;6006;49.696;8.662;2023-05-01T06:28:16;2.43;;;2.23;;
11893;SDS011;6006;49.696;8.662;2023-05-01T06:30:43;2.33;;;2.13;;
11893;SDS011;6006;49.696;8.662;2023-05-01T06:33:09;2.85;;;2.20;;
11893;SDS011;6006;49.696;8.662;2023-05-01T06:35:37;3.17;;;2.13;;
11893;SDS011;6006;49.696;8.662;2023-05-01T06:38:04;3.35;;;2.38;;
11893;SDS011;6006;49.696;8.662;2023-05-01T06:40:31;3.25;;;2.35;;
11893;SDS011;6006;49.696;8.662;2023-05-01T06:43:00;3.67;;;2.15;;
11893;SDS011;6006;49.696;8.662;2023-05-01T06:45:27;2.58;;;1.92;;
11893;SDS011;6006;49.696;8.662;2023-05-01T06:47:54;3.17;;;2.00;;
11893;SDS011;6006;49.696;8.662;2023-05-01T06:50:21;2.20;;;2.00;;
11893;SDS011;6006;49.696;8.662;2023-05-01T06:52:48;1.97;;;1.80;;
11893;SDS011;6006;49.696;8.662;2023-05-01T06:55:15;1.98;;;1.88;;
11893;SDS011;6006;49.696;8.662;2023-05-01T06:57:41;2.17;;;1.98;;
11893;SDS011;6006;49.696;8.662;2023-05-01T07:00:11;2.03;;;1.90;;
11893;SDS011;6006;49.696;8.662;2023-05-01T07:02:39;2.05;;;1.92;;
11893;SDS011;6006;49.696;8.662;2023-05-01T07:05:06;2.10;;;1.90;;
11893;SDS011;6006;49.696;8.662;2023-05-01T07:07:33;3.22;;;2.00;;
11893;SDS011;6006;49.696;8.662;2023-05-01T07:10:00;2.08;;;1.90;;
11893;SDS011;6006;49.696;8.662;2023-05-01T07:12:27;1.88;;;1.77;;
11893;SDS011;6006;49.696;8.662;2023-05-01T07:14:54;1.90;;;1.80;;
11893;SDS011;6006;49.696;8.662;2023-05-01T07:17:23;2.08;;;1.98;;
11893;SDS011;6006;49.696;8.662;2023-05-01T07:19:50;2.83;;;1.90;;
11893;SDS011;6006;49.696;8.662;2023-05-01T07:22:17;1.73;;;1.63;;
11893;SDS011;6006;49.696;8.662;2023-05-01T07:24:44;2.28;;;2.03;;
11893;SDS011;6006;49.696;8.662;2023-05-01T07:27:11;2.55;;;1.90;;
11893;SDS011;6006;49.696;8.662;2023-05-01T07:29:38;2.22;;;1.80;;
11893;SDS011;6006;49.696;8.662;2023-05-01T07:32:05;2.15;;;2.05;;
11893;SDS011;6006;49.696;8.662;2023-05-01T07:34:33;2.03;;;1.88;;
11893;SDS011;6006;49.696;8.662;2023-05-01T07:37:00;2.25;;;2.15;;
11893;SDS011;6006;49.696;8.662;2023-05-01T07:39:28;2.58;;;2.13;;
11893;SDS011;6006;49.696;8.662;2023-05-01T07:41:55;2.45;;;1.88;;
11893;SDS011;6006;49.696;8.662;2023-05-01T07:44:22;2.00;;;1.90;;
11893;SDS011;6006;49.696;8.662;2023-05-01T07:46:49;2.25;;;1.80;;
11893;SDS011;6006;49.696;8.662;2023-05-01T07:49:16;1.90;;;1.80;;
11893;SDS011;6006;49.696;8.662;2023-05-01T07:51:44;2.53;;;2.33;;
11893;SDS011;6006;49.696;8.662;2023-05-01T07:54:12;1.90;;;1.80;;
11893;SDS011;6006;49.696;8.662;2023-05-01T07:56:40;2.28;;;2.08;;
11893;SDS011;6006;49.696;8.662;2023-05-01T07:59:07;2.10;;;1.98;;
11893;SDS011;6006;49.696;8.662;2023-05-01T08:01:35;1.98;;;1.70;;
11893;SDS011;6006;49.696;8.662;2023-05-01T08:04:01;1.80;;;1.70;;
11893;SDS011;6006;49.696;8.662;2023-05-01T08:06:29;2.05;;;1.73;;
11893;SDS011;6006;49.696;8.662;2023-05-01T08:08:58;3.15;;;1.95;;
11893;SDS011;6006;49.696;8.662;2023-05-01T08:11:24;2.17;;;2.08;;
11893;SDS011;6006;49.696;8.662;2023-05-01T08:13:53;2.75;;;1.90;;
11893;SDS011;6006;49.696;8.662;2023-05-01T08:16:20;2.50;;;2.30;;
11893;SDS011;6006;49.696;8.662;2023-05-01T08:18:47;2.38;;;2.10;;
11893;SDS011;6006;49.696;8.662;2023-05-01T08:21:14;2.38;;;2.17;;
11893;SDS011;6006;49.696;8.662;2023-05-01T08:23:40;1.92;;;1.83;;
11893;SDS011;6006;49.696;8.662;2023-05-01T08:26:09;2.80;;;2.20;;
11893;SDS011;6006;49.696;8.662;2023-05-01T08:28:35;2.38;;;2.17;;
11893;SDS011;6006;49.696;8.662;2023-05-01T08:31:03;1.98;;;1.88;;
11893;SDS011;6006;49.696;8.662;2023-05-01T08:33:29;3.25;;;2.17;;
11893;SDS011;6006;49.696;8.662;2023-05-01T08:35:56;2.40;;;2.20;;
11893;SDS011;6006;49.696;8.662;2023-05-01T08:38:23;2.35;;;2.15;;
11893;SDS011;6006;49.696;8.662;2023-05-01T08:40:51;2.72;;;2.53;;
11893;SDS011;6006;49.696;8.662;2023-05-01T08:43:22;2.80;;;2.42;;
11893;SDS011;6006;49.696;8.662;2023-05-01T08:45:50;2.72;;;2.33;;
11893;SDS011;6006;49.696;8.662;2023-05-01T08:48:19;2.42;;;2.30;;
11893;SDS011;6006;49.696;8.662;2023-05-01T08:50:48;2.00;;;1.90;;
11893;SDS011;6006;49.696;8.662;2023-05-01T08:53:15;2.60;;;2.20;;
11893;SDS011;6006;49.696;8.662;2023-05-01T08:55:45;2.33;;;2.17;;
11893;SDS011;6006;49.696;8.662;2023-05-01T08:58:13;2.80;;;2.60;;
11893;SDS011;6006;49.696;8.662;2023-05-01T09:00:43;2.50;;;2.30;;
11893;SDS011;6006;49.696;8.662;2023-05-01T09:03:11;3.47;;;2.60;;
11893;SDS011;6006;49.696;8.662;2023-05-01T09:05:39;2.92;;;2.55;;
11893;SDS011;6006;49.696;8.662;2023-05-01T09:08:05;3.80;;;2.25;;
11893;SDS011;6006;49.696;8.662;2023-05-01T09:10:32;2.05;;;1.95;;
11893;SDS011;6006;49.696;8.662;2023-05-01T09:13:04;2.45;;;2.10;;
11893;SDS011;6006;49.696;8.662;2023-05-01T09:15:33;3.70;;;2.60;;
11893;SDS011;6006;49.696;8.662;2023-05-01T09:18:02;3.40;;;2.63;;
11893;SDS011;6006;49.696;8.662;2023-05-01T09:20:29;2.78;;;2.55;;
11893;SDS011;6006;49.696;8.662;2023-05-01T09:22:57;3.58;;;2.85;;
11893;SDS011;6006;49.696;8.662;2023-05-01T09:25:24;2.58;;;2.38;;
11893;SDS011;6006;49.696;8.662;2023-05-01T09:27:51;2.85;;;2.65;;
11893;SDS011;6006;49.696;8.662;2023-05-01T09:30:31;2.72;;;2.40;;
11893;SDS011;6006;49.696;8.662;2023-05-01T09:33:07;2.70;;;2.50;;
11893;SDS011;6006;49.696;8.662;2023-05-01T09:35:47;2.88;;;2.67;;
11893;SDS011;6006;49.696;8.662;2023-05-01T09:38:22;2.90;;;2.70;;
11893;SDS011;6006;49.696;8.662;2023-05-01T09:40:50;2.90;;;2.70;;
11893;SDS011;6006;49.696;8.662;2023-05-01T09:43:23;3.08;;;2.80;;
11893;SDS011;6006;49.696;8.662;2023-05-01T09:45:58;4.40;;;2.78;;
11893;SDS011;6006;49.696;8.662;2023-05-01T09:48:27;3.35;;;3.05;;
11893;SDS011;6006;49.696;8.662;2023-05-01T09:50:54;2.85;;;2.55;;
11893;SDS011;6006;49.696;8.662;2023-05-01T09:53:32;3.05;;;2.65;;
11893;SDS011;6006;49.696;8.662;2023-05-01T09:56:02;4.30;;;2.72;;
11893;SDS011;6006;49.696;8.662;2023-05-01T09:58:29;2.63;;;2.42;;
11893;SDS011;6006;49.696;8.662;2023-05-01T10:00:56;2.97;;;2.78;;
11893;SDS011;6006;49.696;8.662;2023-05-01T10:03:24;3.22;;;2.90;;
11893;SDS011;6006;49.696;8.662;2023-05-01T10:05:52;3.05;;;2.63;;
11893;SDS011;6006;49.696;8.662;2023-05-01T10:08:20;3.22;;;2.95;;
11893;SDS011;6006;49.696;8.662;2023-05-01T10:10:58;3.13;;;2.70;;
11893;SDS011;6006;49.696;8.662;2023-05-01T10:13:29;2.65;;;2.45;;
11893;SDS011;6006;49.696;8.662;2023-05-01T10:15:56;2.75;;;2.53;;
11893;SDS011;6006;49.696;8.662;2023-05-01T10:18:25;2.58;;;2.40;;
11893;SDS011;6006;49.696;8.662;2023-05-01T10:20:55;3.03;;;2.65;;
11893;SDS011;6006;49.696;8.662;2023-05-01T10:23:23;3.38;;;3.08;;
11893;SDS011;6006;49.696;8.662;2023-05-01T10:25:51;3.25;;;2.88;;
11893;SDS011;6006;49.696;8.662;2023-05-01T10:28:18;4.05;;;2.60;;
11893;SDS011;6006;49.696;8.662;2023-05-01T10:30:46;3.10;;;2.90;;
11893;SDS011;6006;49.696;8.662;2023-05-01T10:33:14;3.53;;;3.22;;
11893;SDS011;6006;49.696;8.662;2023-05-01T10:35:42;2.50;;;2.30;;
11893;SDS011;6006;49.696;8.662;2023-05-01T10:38:18;3.20;;;2.97;;
11893;SDS011;6006;49.696;8.662;2023-05-01T10:40:49;3.38;;;3.05;;
11893;SDS011;6006;49.696;8.662;2023-05-01T10:43:17;2.60;;;2.40;;
11893;SDS011;6006;49.696;8.662;2023-05-01T10:45:49;2.80;;;2.60;;
11893;SDS011;6006;49.696;8.662;2023-05-01T10:51:21;2.90;;;2.55;;
11893;SDS011;6006;49.696;8.662;2023-05-01T10:56:53;2.67;;;2.50;;
11893;SDS011;6006;49.696;8.662;2023-05-01T10:59:22;2.55;;;2.30;;
11893;SDS011;6006;49.696;8.662;2023-05-01T11:01:50;3.22;;;2.30;;
11893;SDS011;6006;49.696;8.662;2023-05-01T11:07:15;3.65;;;2.80;;
11893;SDS011;6006;49.696;8.662;2023-05-01T11:09:45;3.90;;;2.53;;
11893;SDS011;6006;49.696;8.662;2023-05-01T11:12:13;2.50;;;2.30;;
11893;SDS011;6006;49.696;8.662;2023-05-01T11:15:00;2.65;;;2.30;;
11893;SDS011;6006;49.696;8.662;2023-05-01T11:17:45;3.13;;;2.60;;
11893;SDS011;6006;49.696;8.662;2023-05-01T11:23:15;2.88;;;2.67;;
11893;SDS011;6006;49.696;8.662;2023-05-01T11:25:44;2.72;;;2.47;;
11893;SDS011;6006;49.696;8.662;2023-05-01T11:28:17;2.72;;;2.50;;
11893;SDS011;6006;49.696;8.662;2023-05-01T11:30:45;2.97;;;2.53;;
11893;SDS011;6006;49.696;8.662;2023-05-01T11:33:12;5.38;;;2.92;;
11893;SDS011;6006;49.696;8.662;2023-05-01T11:35:46;3.30;;;3.00;;
11893;SDS011;6006;49.696;8.662;2023-05-01T11:38:26;3.10;;;2.90;;
11893;SDS011;6006;49.696;8.662;2023-05-01T11:40:55;4.03;;;2.88;;
11893;SDS011;6006;49.696;8.662;2023-05-01T11:43:25;2.95;;;2.75;;
11893;SDS011;6006;49.696;8.662;2023-05-01T11:45:52;3.47;;;3.17;;
11893;SDS011;6006;49.696;8.662;2023-05-01T11:48:27;2.95;;;2.65;;
11893;SDS011;6006;49.696;8.662;2023-05-01T11:50:55;3.03;;;2.78;;
11893;SDS011;6006;49.696;8.662;2023-05-01T11:53:22;3.10;;;2.72;;
11893;SDS011;6006;49.696;8.662;2023-05-01T11:55:49;2.60;;;2.40;;
11893;SDS011;6006;49.696;8.662;2023-05-01T11:58:18;3.50;;;3.20;;
11893;SDS011;6006;49.696;8.662;2023-05-01T12:00:57;3.03;;;2.80;;
11893;SDS011;6006;49.696;8.662;2023-05-01T12:03:24;3.08;;;2.78;;
11893;SDS011;6006;49.696;8.662;2023-05-01T12:05:51;2.90;;;2.70;;
11893;SDS011;6006;49.696;8.662;2023-05-01T12:08:18;3.40;;;3.10;;
11893;SDS011;6006;49.696;8.662;2023-05-01T12:10:46;5.03;;;3.15;;
11893;SDS011;6006;49.696;8.662;2023-05-01T12:13:17;3.13;;;2.83;;
11893;SDS011;6006;49.696;8.662;2023-05-01T12:15:46;3.53;;;2.85;;
11893;SDS011;6006;49.696;8.662;2023-05-01T12:18:14;4.22;;;3.72;;
11893;SDS011;6006;49.696;8.662;2023-05-01T12:20:43;2.83;;;2.45;;
11893;SDS011;6006;49.696;8.662;2023-05-01T12:23:11;2.45;;;2.25;;
11893;SDS011;6006;49.696;8.662;2023-05-01T12:25:40;2.38;;;2.28;;
11893;SDS011;6006;49.696;8.662;2023-05-01T12:28:09;2.97;;;2.67;;
11893;SDS011;6006;49.696;8.662;2023-05-01T12:30:40;3.05;;;2.85;;
11893;SDS011;6006;49.696;8.662;2023-05-01T12:33:09;3.00;;;2.80;;
11893;SDS011;6006;49.696;8.662;2023-05-01T12:35:37;3.00;;;2.70;;
11893;SDS011;6006;49.696;8.662;2023-05-01T12:38:11;3.35;;;3.03;;
11893;SDS011;6006;49.696;8.662;2023-05-01T12:40:39;5.20;;;3.10;;
11893;SDS011;6006;49.696;8.662;2023-05-01T12:43:15;4.40;;;2.90;;
11893;SDS011;6006;49.696;8.662;2023-05-01T12:45:44;3.35;;;2.80;;
11893;SDS011;6006;49.696;8.662;2023-05-01T12:48:12;3.60;;;3.03;;
11893;SDS011;6006;49.696;8.662;2023-05-01T12:50:39;3.35;;;3.05;;
11893;SDS011;6006;49.696;8.662;2023-05-01T12:53:07;4.22;;;3.05;;
11893;SDS011;6006;49.696;8.662;2023-05-01T12:55:44;2.97;;;2.60;;
11893;SDS011;6006;49.696;8.662;2023-05-01T12:58:11;2.92;;;2.72;;
11893;SDS011;6006;49.696;8.662;2023-05-01T13:00:43;2.70;;;2.35;;
11893;SDS011;6006;49.696;8.662;2023-05-01T13:03:12;2.90;;;2.70;;
11893;SDS011;6006;49.696;8.662;2023-05-01T13:05:48;2.80;;;2.58;;
11893;SDS011;6006;49.696;8.662;2023-05-01T13:08:24;2.88;;;2.35;;
11893;SDS011;6006;49.696;8.662;2023-05-01T13:10:53;3.33;;;2.70;;
11893;SDS011;6006;49.696;8.662;2023-05-01T13:13:23;3.15;;;2.78;;
11893;SDS011;6006;49.696;8.662;2023-05-01T13:15:53;2.85;;;2.65;;
11893;SDS011;6006;49.696;8.662;2023-05-01T13:18:28;3.22;;;2.92;;
11893;SDS011;6006;49.696;8.662;2023-05-01T13:21:04;3.25;;;2.95;;
11893;SDS011;6006;49.696;8.662;2023-05-01T13:23:35;3.58;;;3.28;;
11893;SDS011;6006;49.696;8.662;2023-05-01T13:26:04;3.50;;;2.70;;
11893;SDS011;6006;49.696;8.662;2023-05-01T13:28:32;2.80;;;2.60;;
11893;SDS011;6006;49.696;8.662;2023-05-01T13:31:02;2.70;;;2.50;;
11893;SDS011;6006;49.696;8.662;2023-05-01T13:33:35;2.90;;;2.70;;
11893;SDS011;6006;49.696;8.662;2023-05-01T13:36:03;3.38;;;3.17;;
11893;SDS011;6006;49.696;8.662;2023-05-01T13:38:31;3.03;;;2.65;;
11893;SDS011;6006;49.696;8.662;2023-05-01T13:41:05;3.75;;;2.25;;
11893;SDS011;6006;49.696;8.662;2023-05-01T13:43:32;3.38;;;2.75;;
11893;SDS011;6006;49.696;8.662;2023-05-01T13:46:00;4.10;;;2.58;;
11893;SDS011;6006;49.696;8.662;2023-05-01T13:48:28;3.15;;;2.63;;
11893;SDS011;6006;49.696;8.662;2023-05-01T13:50:56;3.30;;;3.10;;
11893;SDS011;6006;49.696;8.662;2023-05-01T13:53:23;2.60;;;2.40;;
11893;SDS011;6006;49.696;8.662;2023-05-01T13:55:50;2.90;;;2.58;;
11893;SDS011;6006;49.696;8.662;2023-05-01T13:58:16;2.83;;;2.63;;
11893;SDS011;6006;49.696;8.662;2023-05-01T14:00:43;2.85;;;2.55;;
11893;SDS011;6006;49.696;8.662;2023-05-01T14:03:12;2.85;;;2.60;;
11893;SDS011;6006;49.696;8.662;2023-05-01T14:05:42;3.53;;;2.70;;
11893;SDS011;6006;49.696;8.662;2023-05-01T14:08:10;2.60;;;2.40;;
11893;SDS011;6006;49.696;8.662;2023-05-01T14:10:37;2.65;;;2.45;;
11893;SDS011;6006;49.696;8.662;2023-05-01T14:13:04;3.47;;;2.53;;
11893;SDS011;6006;49.696;8.662;2023-05-01T14:15:32;2.88;;;2.55;;
11893;SDS011;6006;49.696;8.662;2023-05-01T14:18:03;3.85;;;2.83;;
11893;SDS011;6006;49.696;8.662;2023-05-01T14:20:32;2.55;;;2.35;;
11893;SDS011;6006;49.696;8.662;2023-05-01T14:22:59;2.85;;;2.65;;
11893;SDS011;6006;49.696;8.662;2023-05-01T14:25:26;2.92;;;2.65;;
11893;SDS011;6006;49.696;8.662;2023-05-01T14:27:55;2.90;;;2.50;;
11893;SDS011;6006;49.696;8.662;2023-05-01T14:30:24;3.45;;;3.15;;
11893;SDS011;6006;49.696;8.662;2023-05-01T14:32:53;3.08;;;2.30;;
11893;SDS011;6006;49.696;8.662;2023-05-01T14:35:20;2.58;;;2.38;;
11893;SDS011;6006;49.696;8.662;2023-05-01T14:37:49;2.70;;;2.50;;
11893;SDS011;6006;49.696;8.662;2023-05-01T14:40:17;3.38;;;2.97;;
11893;SDS011;6006;49.696;8.662;2023-05-01T14:42:48;2.58;;;2.38;;
11893;SDS011;6006;49.696;8.662;2023-05-01T14:45:15;2.92;;;2.72;;
11893;SDS011;6006;49.696;8.662;2023-05-01T14:47:44;5.00;;;2.88;;
11893;SDS011;6006;49.696;8.662;2023-05-01T14:50:12;3.17;;;2.90;;
11893;SDS011;6006;49.696;8.662;2023-05-01T14:52:44;2.90;;;2.70;;
11893;SDS011;6006;49.696;8.662;2023-05-01T14:55:12;3.45;;;3.15;;
11893;SDS011;6006;49.696;8.662;2023-05-01T14:57:43;4.45;;;2.80;;
11893;SDS011;6006;49.696;8.662;2023-05-01T15:00:11;2.80;;;2.60;;
11893;SDS011;6006;49.696;8.662;2023-05-01T15:02:39;2.28;;;2.17;;
11893;SDS011;6006;49.696;8.662;2023-05-01T15:05:06;2.83;;;2.40;;
11893;SDS011;6006;49.696;8.662;2023-05-01T15:07:33;2.40;;;2.20;;
11893;SDS011;6006;49.696;8.662;2023-05-01T15:10:00;2.53;;;2.20;;
11893;SDS011;6006;49.696;8.662;2023-05-01T15:12:28;2.55;;;2.35;;
11893;SDS011;6006;49.696;8.662;2023-05-01T15:14:55;2.65;;;2.45;;
11893;SDS011;6006;49.696;8.662;2023-05-01T15:17:22;4.05;;;2.75;;
11893;SDS011;6006;49.696;8.662;2023-05-01T15:19:48;2.40;;;2.28;;
11893;SDS011;6006;49.696;8.662;2023-05-01T15:22:15;3.42;;;2.60;;
11893;SDS011;6006;49.696;8.662;2023-05-01T15:24:42;3.03;;;2.72;;